Tiempo atmosférico en la estación meteorológica de Quintana del Castillo, Villameca, León (995 m.)



Fecha
DESCASC
Temp. máxima en grados centígrados (hora)
DESCASC
Temp. mínima en grados centígrados (hora)
DESCASC
Temp. media en grados centígrados
DESCASC
Racha de viento máxima en m/sg (hora)
DESCASC
Velocidad máxima media en intervalos de 10 minutos(hora)
DESCASC
Precipitaciones diarias en mm
DESCASC
Precipitaciones de 00:00 a 06:00 en mm
DESCASC
Precipitaciones de 06:00 a 12:00 en mm
DESCASC
Precipitaciones de 12:00 a 18:00 en mm
DESCASC
Precipitaciones de 18:00 a 24:00 en mm
DESCASC
25-04-2019 8.5 (15:50) 0.8 (08:10) 4.7 18.06 (17:00) 10.56 (17:00) 11.4 1.2 1.2 1 8
24-04-2019 9.5 (17:40) 0.1 (03:30) 4.8 14.17 (21:10) 8.89 (21:20) 8.6 0 2 4 2.6
23-04-2019 8.6 (14:20) 0.8 (23:59) 4.7 15.83 (15:30) 10.56 (15:30) 3.4 1.6 1.6 0.2 0
22-04-2019 15.6 (17:50) 5.3 (00:00) 10.5 9.72 (20:20) 6.39 (20:20) 0.6 0 0 0 0.6
21-04-2019 14.8 (17:50) 6.9 (00:00) 10.9 17.78 (13:50) 11.39 (11:20) 0 0 0 0 0
20-04-2019 17.8 (16:30) 5.7 (00:00) 11.7 16.67 (21:50) 10.83 (17:00) 0 0 0 0 0
19-04-2019 14.1 (19:30) 7.1 (00:00) 10.6 13.33 (17:00) 8.33 (17:00) 3.6 3 0.6 0 0
18-04-2019 12.3 (16:10) 6 (00:00) 9.2 10.28 (20:50) 5.83 (21:00) 5.4 3 0 0 2.4
17-04-2019 16.9 (17:40) 7.1 (00:00) 12 11.67 (15:40) 6.11 (19:40) 1 0 0 0 1
16-04-2019 15.3 (18:10) 1.9 (00:00) 8.6 8.61 (18:30) 4.17 (00:10) 0 0 0 0 0
15-04-2019 15.1 (14:40) 5.7 (00:00) 10.4 18.61 (14:50) 10.83 (15:00) 5.8 0 3.6 1.8 0.4
14-04-2019 19.2 (17:50) 9 (00:00) 14.1 11.11 (14:00) 5.83 (14:00) 0 0 0 0 0
13-04-2019 18.6 (15:40) 3.7 (00:00) 11.2 8.33 (19:00) 5.56 (19:10) 0 0 0 0 0
12-04-2019 16.5 (18:20) 0.2 (00:00) 8.4 6.94 (17:40) 3.61 (23:30) 0 0 0 0 0
11-04-2019 11.2 (17:30) 0.6 (00:00) 5.9 8.06 (12:40) 4.44 (12:40) 0 0 0 0 0
10-04-2019 9.8 (16:40) 2.6 (00:00) 6.2 12.5 (14:50) 8.89 (16:20) 1.4 0.8 0.6 0 0
09-04-2019 7.8 (17:20) 1 (00:00) 4.4 13.33 (16:30) 8.33 (17:00) 9.8 1 5.8 0.4 2.6
08-04-2019 10.8 (17:50) 2.6 (00:00) 6.7 10.28 (16:50) 6.67 (16:50) 2.8 2.4 0.4 0 0
07-04-2019 8.6 (15:30) 0.2 (00:00) 4.4 10 (02:30) 6.39 (02:30) 9.8 0.2 0 0.8 8.8
06-04-2019 4.3 (16:10) -0.1 (00:00) 2.1 15.83 (20:10) 10 (20:10) 4.4 0 1 2.4 1
05-04-2019 7.3 (15:40) 0.5 (00:00) 3.9 13.06 (19:20) 8.33 (19:30) 1.2 0.8 0.2 0 0.2
04-04-2019 5.6 (15:20) -1.6 (-00:0) 2 11.11 (13:50) 6.39 (11:30) 2 0 0 0 2
03-04-2019 6.5 (14:50) -0.3 (00:00) 3.1 14.72 (18:10) 9.17 (15:20) 0 0 0 0 0
02-04-2019 14.9 (17:00) 2.9 (00:00) 8.9 15.83 (17:50) 8.33 (17:50) 0.2 0.2 0 0 0
01-04-2019 16.3 (15:00) 2 (00:00) 9.1 9.17 (15:20) 4.44 (15:20) 0.8 0 0 0.8 0
31-03-2019 16.8 (15:20) 3.7 (00:00) 10.2 10.28 (16:20) 6.94 (19:20) 0 0 0 0 0
30-03-2019 14.3 (18:10) 4 (00:00) 9.2 10 (16:50) 7.5 (16:50) 0 0 0 0 0
29-03-2019 17.7 (15:50) 1.7 (00:00) 9.7 6.67 (17:20) 4.17 (05:10) 0 0 0 0 0
28-03-2019 18.1 (15:30) -0.2 (00:00) 9 7.78 (15:10) 3.89 (06:20) 0 0 0 0 0
27-03-2019 19.1 (16:10) 0.2 (00:00) 9.7 7.5 (22:30) 5.83 (22:40) 0 0 0 0 0

Gráficas

Temp. máximas Temp. mínimas Temp. medias Precipitaciones Rachas de viento máximas Velocidades máximas media en intervalos de 10 minutos

Datos horarios

Fecha y hora oficial Temperatura (ºC) Velocidad del viento (km/h) Dirección del viento Racha (km/h) Dirección de racha Precipitación (mm) Presión (hPa) Tendencia (hPa) Humedad (%)
2019-04-25 23:00:00 2.3 20 Noroeste 37 Noroeste 3.2 -- -- 94
2019-04-25 22:00:00 2.8 19 Noroeste 36 Noroeste 2 -- -- 95
2019-04-25 21:00:00 2.6 22 Noroeste 55 Noroeste 1.6 -- -- 93
2019-04-25 20:00:00 3.2 30 Noroeste 55 Noroeste 0.2 -- -- 93
2019-04-25 19:00:00 3.2 30 Noroeste 52 Noroeste 0.6 -- -- 93
2019-04-25 18:00:00 2.5 19 Noroeste 58 Noroeste 1 -- -- 93
2019-04-25 17:00:00 5 38 Oeste 65 Noroeste 0 -- -- 83
2019-04-25 16:00:00 7.7 30 Oeste 48 Oeste 0 -- -- 68
2019-04-25 15:00:00 6.9 30 Noroeste 53 Oeste 0 -- -- 72
2019-04-25 14:00:00 7.5 26 Oeste 41 Noroeste 0 -- -- 65
2019-04-25 13:00:00 7.1 19 Oeste 35 Oeste 0 -- -- 73
2019-04-25 12:00:00 4.5 19 Oeste 38 Oeste 0 -- -- 83
2019-04-25 11:00:00 3.7 22 Oeste 40 Oeste 0 -- -- 87
2019-04-25 10:00:00 2.9 16 Oeste 32 Oeste 0.2 -- -- 95
2019-04-25 09:00:00 1.5 9 Oeste 17 Oeste 0.4 -- -- 97
2019-04-25 08:00:00 1 5 Oeste 13 Oeste 0.6 -- -- 97
2019-04-25 07:00:00 1.6 7 Oeste 26 Oeste 0 -- -- 97
2019-04-25 06:00:00 1.8 2 Oeste 5 Oeste 0 -- -- 97
2019-04-25 05:00:00 1.8 2 Oeste 5 Sudoeste 0.2 -- -- 97
2019-04-25 04:00:00 1.5 0 Calma 8 Sudoeste 0 -- -- 97
2019-04-25 03:00:00 1.5 2 Sudoeste 14 Oeste 0 -- -- 96
2019-04-25 02:00:00 1.5 6 Noroeste 24 Noroeste 0.6 -- -- 95
2019-04-25 01:00:00 2 12 Noroeste 33 Noroeste 0.4 -- -- 94
2019-04-25 00:00:00 2.9 9 Noroeste 14 Noroeste 0 -- -- 92
2019-04-24 23:00:00 2.6 4 Oeste 27 Noroeste 0 -- -- 96
2019-04-24 22:00:00 2.4 15 Noroeste 51 Noroeste 1.8 -- -- 95
2019-04-24 21:00:00 4.6 28 Noroeste 51 Noroeste 0.6 -- -- 90
2019-04-24 20:00:00 5.9 9 Oeste 42 Noroeste 0.2 -- -- 90
2019-04-24 19:00:00 5.6 24 Noroeste 46 Noroeste 0 -- -- 87
2019-04-24 18:00:00 8.4 19 Oeste 38 Noroeste 0 -- -- 70
2019-04-24 17:00:00 8.8 20 Oeste 47 Noroeste 0.2 -- -- 78
2019-04-24 16:00:00 6.9 13 Oeste 30 Noroeste 1 -- -- 94
2019-04-24 15:00:00 6.3 5 Este 12 Norte 0.2 -- -- 88
2019-04-24 14:00:00 5 3 Nordeste 10 Sur 1.2 -- -- 92
2019-04-24 13:00:00 3.3 4 Sur 8 Sur 1.4 -- -- 97
2019-04-24 12:00:00 1.6 3 Sur 16 Sur 1 -- -- 98
2019-04-24 11:00:00 0.8 4 Sur 17 Sur 0.2 -- -- 99
2019-04-24 10:00:00 0.3 8 Sur 18 Sur 0.2 -- -- 98
2019-04-24 09:00:00 0.3 0 Calma 13 Sur 0 -- -- 98
2019-04-24 08:00:00 0.7 8 Sur 23 Sudoeste 0.2 -- -- 97
2019-04-24 07:00:00 1.4 6 Sur 24 Sur 0.4 -- -- 98
2019-04-24 06:00:00 1.2 5 Sudoeste 19 Sudoeste 0 -- -- 97
2019-04-24 05:00:00 0.6 4 Sur 15 Sudeste 0 -- -- 96
2019-04-24 04:00:00 1 5 Este 7 Sur 0 -- -- 96
2019-04-24 03:00:00 0.7 2 Sur 13 Noroeste 0 -- -- 94
2019-04-24 02:00:00 1.7 8 Noroeste 16 Noroeste 0 -- -- 93
2019-04-24 01:00:00 1.4 7 Noroeste 13 Noroeste 0 -- -- 90
2019-04-24 00:00:00 0.8 5 Sur 16 Norte 0 -- -- 89
2019-04-23 23:00:00 2 2 Oeste 18 Noroeste 0 -- -- 88
2019-04-23 22:00:00 2.6 11 Noroeste 26 Norte 0 -- -- 87
2019-04-23 21:00:00 3.3 19 Noroeste 40 Noroeste 0 -- -- 84
2019-04-23 20:00:00 5 16 Noroeste 35 Noroeste 0 -- -- 74
2019-04-23 19:00:00 5.3 18 Noroeste 37 Noroeste 0 -- -- 69
2019-04-23 18:00:00 4.7 25 Noroeste 45 Noroeste 0 -- -- 77
2019-04-23 17:00:00 4.6 23 Noroeste 55 Noroeste 0 -- -- 83
2019-04-23 16:00:00 4.8 37 Noroeste 57 Noroeste 0 -- -- 84
2019-04-23 15:00:00 6.5 10 Noroeste 40 Noroeste 0.2 -- -- 73
2019-04-23 14:00:00 7.7 5 Sudeste 13 Noroeste 0 -- -- 69
2019-04-23 13:00:00 7.6 5 Noroeste 15 Noroeste 0 -- -- 74
2019-04-23 12:00:00 5.7 7 Noroeste 15 Norte 0 -- -- 80
2019-04-23 11:00:00 5.5 11 Noroeste 19 Oeste 0 -- -- 84
2019-04-23 10:00:00 4.3 7 Oeste 13 Oeste 0.4 -- -- 92
2019-04-23 09:00:00 4.2 3 Oeste 15 Norte 1 -- -- 92
2019-04-23 08:00:00 4.6 0 Calma 10 Oeste 0.2 -- -- 94
2019-04-23 07:00:00 4.9 5 Sudoeste 17 Nordeste 0 -- -- 92
2019-04-23 06:00:00 5.1 6 Noroeste 13 Noroeste 0.2 -- -- 91
2019-04-23 05:00:00 6.1 5 Sudoeste 11 Sur 0 -- -- 92
2019-04-23 04:00:00 6.2 4 Sur 18 Sur 0 -- -- 92
2019-04-23 03:00:00 6.5 10 Sur 20 Sur 0 -- -- 90
2019-04-23 02:00:00 7 11 Sur 21 Sur 0.2 -- -- 86
2019-04-23 01:00:00 7.4 3 Sudeste 15 Sudoeste 1.2 -- -- 90
2019-04-23 00:00:00 8 5 Sudoeste 23 Noroeste 0.4 -- -- 86
2019-04-22 23:00:00 9.2 12 Oeste 23 Oeste 0.2 -- -- 83
2019-04-22 22:00:00 10.8 0 Calma 29 Noroeste 0 -- -- 69
2019-04-22 21:00:00 11.5 15 Noroeste 35 Noroeste 0 -- -- 67
2019-04-22 20:00:00 14 7 Noroeste 15 Norte 0 -- -- 54
2019-04-22 19:00:00 14.6 9 Noroeste 19 Noroeste 0 -- -- 52
2019-04-22 18:00:00 15.4 8 Sudoeste 19 Sur 0 -- -- 50
2019-04-22 17:00:00 14.7 9 Sur 20 Sudoeste 0 -- -- 52
2019-04-22 16:00:00 14.3 6 Sudeste 22 Sur 0 -- -- 53
2019-04-22 15:00:00 14.7 9 Sudoeste 23 Sudoeste 0 -- -- 57
2019-04-22 14:00:00 12.8 5 Sudoeste 20 Sudoeste 0 -- -- 65
2019-04-22 13:00:00 11.7 6 Sur 16 Sur 0 -- -- 67
2019-04-22 12:00:00 10.1 5 Sur 13 Sur 0 -- -- 73
2019-04-22 11:00:00 8.4 4 Sur 7 Sudoeste 0 -- -- 81
2019-04-22 10:00:00 7.6 3 Sudoeste 5 Sudoeste 0 -- -- 84
2019-04-22 09:00:00 6.7 0 Calma 7 Norte 0 -- -- 90
2019-04-22 08:00:00 6 6 Norte 8 Norte 0 -- -- 91
2019-04-22 07:00:00 6.2 4 Norte 9 Norte 0 -- -- 91
2019-04-22 06:00:00 6.3 4 Norte 8 Norte 0 -- -- 90
2019-04-22 05:00:00 6.8 4 Norte 6 Norte 0 -- -- 87
2019-04-22 04:00:00 6.6 4 Nordeste 6 Nordeste 0 -- -- 88
2019-04-22 03:00:00 5.6 6 Norte 10 Norte 0 -- -- 88
2019-04-22 02:00:00 5.8 8 Norte 10 Norte 0 -- -- 87
2019-04-22 01:00:00 7.4 5 Nordeste 8 Oeste 0 -- -- 80
2019-04-22 00:00:00 8.9 5 Oeste 28 Nordeste 0 -- -- 66
2019-04-21 23:00:00 10.6 11 Nordeste 28 Nordeste 0 -- -- 65
2019-04-21 22:00:00 11 4 Nordeste 38 Nordeste 0 -- -- 61
2019-04-21 21:00:00 12.2 31 Nordeste 40 Nordeste 0 -- -- 62
2019-04-21 20:00:00 13.6 28 Nordeste 41 Nordeste 0 -- -- 55
2019-04-21 19:00:00 14.3 29 Este 40 Este 0 -- -- 50
2019-04-21 18:00:00 14.6 30 Nordeste 44 Este 0 -- -- 52
2019-04-21 17:00:00 14.6 30 Nordeste 46 Nordeste 0 -- -- 50
2019-04-21 16:00:00 14.5 30 Nordeste 50 Nordeste 0 -- -- 50
2019-04-21 15:00:00 14.2 32 Nordeste 46 Nordeste 0 -- -- 53
2019-04-21 14:00:00 14.1 37 Este 64 Este 0 -- -- 50
2019-04-21 13:00:00 13.9 27 Este 51 Nordeste 0 -- -- 49
2019-04-21 12:00:00 13.1 39 Este 54 Nordeste 0 -- -- 53
2019-04-21 11:00:00 13.5 32 Este 45 Este 0 -- -- 50
2019-04-21 10:00:00 12.2 20 Este 32 Nordeste 0 -- -- 57
2019-04-21 09:00:00 11.2 11 Nordeste 22 Este 0 -- -- 61
2019-04-21 08:00:00 6.9 4 Sur 7 Sudeste 0 -- -- 68
2019-04-21 07:00:00 7.6 5 Nordeste 13 Norte 0 -- -- 74
2019-04-21 06:00:00 8.6 10 Nordeste 13 Norte 0 -- -- 69
2019-04-21 05:00:00 9.4 8 Nordeste 16 Este 0 -- -- 69
2019-04-21 04:00:00 10.2 15 Este 28 Este 0 -- -- 62
2019-04-21 03:00:00 10.7 19 Este 33 Nordeste 0 -- -- 59
2019-04-21 02:00:00 11.3 27 Nordeste 35 Nordeste 0 -- -- 61
2019-04-21 01:00:00 11.6 23 Nordeste 32 Nordeste 0 -- -- 59
2019-04-21 00:00:00 11.6 23 Nordeste 40 Este 0 -- -- 61
2019-04-20 23:00:00 12.3 27 Nordeste 46 Nordeste 0 -- -- 59
2019-04-20 22:00:00 12.9 34 Nordeste 60 Nordeste 0 -- -- 54
2019-04-20 21:00:00 13.8 35 Nordeste 52 Nordeste 0 -- -- 53
2019-04-20 20:00:00 15.2 35 Nordeste 48 Nordeste 0 -- -- 48
2019-04-20 19:00:00 16.4 29 Nordeste 44 Nordeste 0 -- -- 41
2019-04-20 18:00:00 16.9 31 Nordeste 50 Nordeste 0 -- -- 45
2019-04-20 17:00:00 17.4 39 Nordeste 49 Nordeste 0 -- -- 39
2019-04-20 16:00:00 17.6 33 Este 43 Este 0 -- -- 39
2019-04-20 15:00:00 17.4 27 Nordeste 40 Nordeste 0 -- -- 40
2019-04-20 14:00:00 17.4 21 Nordeste 40 Nordeste 0 -- -- 42
2019-04-20 13:00:00 16.8 31 Nordeste 42 Nordeste 0 -- -- 43
2019-04-20 12:00:00 17 24 Este 36 Este 0 -- -- 44
2019-04-20 11:00:00 15.1 3 Sur 10 Oeste 0 -- -- 64
2019-04-20 10:00:00 11.7 6 Sudoeste 14 Norte 0 -- -- 73
2019-04-20 09:00:00 8.2 9 Norte 20 Norte 0 -- -- 82
2019-04-20 08:00:00 6.3 13 Norte 18 Norte 0 -- -- 88
2019-04-20 07:00:00 5.7 11 Norte 17 Norte 0 -- -- 89
2019-04-20 06:00:00 5.9 11 Norte 21 Norte 0 -- -- 86
2019-04-20 05:00:00 6.1 13 Norte 15 Norte 0 -- -- 85
2019-04-20 04:00:00 6.4 13 Norte 16 Norte 0 -- -- 81
2019-04-20 03:00:00 6.3 10 Norte 12 Norte 0 -- -- 84
2019-04-20 02:00:00 7.4 2 Norte 12 Norte 0 -- -- 79
2019-04-20 01:00:00 8.5 8 Nordeste 12 Norte 0 -- -- 75
2019-04-20 00:00:00 9.4 5 Nordeste 13 Norte 0 -- -- 71
2019-04-19 23:00:00 9.3 9 Norte 12 Norte 0 -- -- 76
2019-04-19 22:00:00 11.1 6 Norte 12 Sudeste 0 -- -- 65
2019-04-19 21:00:00 12.7 8 Este 37 Sudeste 0 -- -- 60
2019-04-19 20:00:00 13.8 23 Sudeste 33 Sudeste 0 -- -- 61
2019-04-19 19:00:00 13.1 8 Sur 20 Sur 0 -- -- 72
2019-04-19 18:00:00 12.6 8 Sur 40 Sudeste 0 -- -- 70
2019-04-19 17:00:00 12.7 30 Sudeste 48 Este 0 -- -- 66
2019-04-19 16:00:00 13.2 23 Sudeste 40 Sudeste 0 -- -- 69
2019-04-19 15:00:00 12.6 16 Sudeste 34 Sudeste 0 -- -- 69
2019-04-19 14:00:00 11.3 13 Sudeste 38 Sudeste 0 -- -- 74
2019-04-19 13:00:00 11.1 23 Sudeste 40 Sudeste 0 -- -- 78
2019-04-19 12:00:00 9.6 22 Sudeste 37 Sudeste 0 -- -- 84
2019-04-19 11:00:00 8.3 14 Sudeste 35 Sudeste 0 -- -- 91
2019-04-19 10:00:00 8.5 24 Este 39 Este 0 -- -- 91
2019-04-19 09:00:00 7.6 14 Este 41 Este 0 -- -- 93
2019-04-19 08:00:00 7.3 22 Este 37 Este 0.6 -- -- 94
2019-04-19 07:00:00 7.4 21 Este 40 Este 0 -- -- 93
2019-04-19 06:00:00 7.5 20 Este 30 Este 0.6 -- -- 91
2019-04-19 05:00:00 7.8 13 Nordeste 20 Nordeste 0.4 -- -- 90
2019-04-19 04:00:00 7.7 15 Nordeste 26 Nordeste 0.4 -- -- 92
2019-04-19 03:00:00 7.1 4 Este 13 Sudeste 1.6 -- -- 93
2019-04-19 02:00:00 8.1 8 Este 14 Nordeste 0 -- -- 87
2019-04-19 01:00:00 8.1 9 Nordeste 15 Nordeste 0 -- -- 87
2019-04-19 00:00:00 7.9 9 Nordeste 22 Norte 0 -- -- 87
2019-04-18 23:00:00 7 3 Norte 10 Norte 0 -- -- 90
2019-04-18 22:00:00 7.2 9 Nordeste 25 Este 0.2 -- -- 89
2019-04-18 21:00:00 7.5 21 Este 37 Este 0.8 -- -- 90
2019-04-18 20:00:00 8.3 9 Sudeste 17 Este 1.4 -- -- 91
2019-04-18 19:00:00 9.4 12 Sudeste 22 Sudeste 0 -- -- 84
2019-04-18 18:00:00 11.2 9 Sudeste 21 Sudeste 0 -- -- 71
2019-04-18 17:00:00 12.3 6 Sur 15 Sudeste 0 -- -- 64
2019-04-18 16:00:00 12.2 5 Sur 12 Sur 0 -- -- 64
2019-04-18 15:00:00 11 6 Sudeste 18 Este 0 -- -- 70
2019-04-18 14:00:00 10.4 7 Sudeste 19 Sudeste 0 -- -- 76
2019-04-18 13:00:00 9.2 6 Sudeste 11 Sudeste 0 -- -- 82
2019-04-18 12:00:00 8.3 5 Este 9 Este 0 -- -- 87
2019-04-18 11:00:00 7.5 5 Sudeste 9 Sur 0 -- -- 92
2019-04-18 10:00:00 6.6 6 Sudeste 12 Sudeste 0 -- -- 96
2019-04-18 09:00:00 6.2 7 Sudeste 12 Este 0 -- -- 97
2019-04-18 08:00:00 6.1 3 Sudeste 9 Este 0 -- -- 96
2019-04-18 07:00:00 6.1 3 Sudeste 6 Sudeste 0 -- -- 96
2019-04-18 06:00:00 6.1 3 Sur 7 Noroeste 0.2 -- -- 96
2019-04-18 05:00:00 6.3 5 Noroeste 12 Noroeste 1 -- -- 92
2019-04-18 04:00:00 6.6 9 Oeste 18 Oeste 1.8 -- -- 95
2019-04-18 03:00:00 7.5 4 Sudoeste 19 Sur 0 -- -- 95
2019-04-18 02:00:00 7.6 7 Sur 19 Sur 0 -- -- 93
2019-04-18 01:00:00 7.9 7 Sur 24 Sudoeste 0 -- -- 93
2019-04-18 00:00:00 8.3 6 Sudeste 16 Sudeste 0.4 -- -- 90
2019-04-17 23:00:00 9.1 6 Sur 22 Sudoeste 0.6 -- -- 85
2019-04-17 22:00:00 11 7 Sudoeste 21 Oeste 0 -- -- 77
2019-04-17 21:00:00 12.3 8 Sudoeste 40 Sudoeste 0 -- -- 65
2019-04-17 20:00:00 13.8 16 Sur 41 Sur 0 -- -- 55
2019-04-17 19:00:00 15.2 15 Sur 35 Sur 0 -- -- 52
2019-04-17 18:00:00 16.1 18 Sur 38 Sur 0 -- -- 49
2019-04-17 17:00:00 16 19 Sur 37 Sur 0 -- -- 51
2019-04-17 16:00:00 15.9 15 Sur 42 Sur 0 -- -- 49
2019-04-17 15:00:00 16.5 14 Sudoeste 28 Sudoeste 0 -- -- 49
2019-04-17 14:00:00 15.3 15 Sudoeste 36 Sur 0 -- -- 54
2019-04-17 13:00:00 14.3 15 Sudoeste 35 Sudoeste 0 -- -- 60
2019-04-17 12:00:00 14.1 11 Sur 25 Sudeste 0 -- -- 61
2019-04-17 11:00:00 11.9 9 Sur 20 Sur 0 -- -- 66
2019-04-17 10:00:00 10.3 5 Sur 15 Sudeste 0 -- -- 73
2019-04-17 09:00:00 8.3 6 Nordeste 15 Este 0 -- -- 77
2019-04-17 08:00:00 8 5 Sudeste 14 Nordeste 0 -- -- 76
2019-04-17 07:00:00 8 6 Este 16 Este 0 -- -- 77
2019-04-17 06:00:00 8.3 6 Este 13 Este 0 -- -- 75
2019-04-17 05:00:00 9.5 10 Este 31 Este 0 -- -- 68
2019-04-17 04:00:00 8.2 8 Nordeste 17 Nordeste 0 -- -- 74
2019-04-17 03:00:00 7.1 11 Norte 14 Norte 0 -- -- 79
2019-04-17 02:00:00 8 3 Oeste 9 Oeste 0 -- -- 64
2019-04-17 01:00:00 8.9 0 Calma 11 Sudeste 0 -- -- 63
2019-04-17 00:00:00 9.3 8 Nordeste 21 Nordeste 0 -- -- 67
2019-04-16 23:00:00 9.1 7 Nordeste 13 Norte 0 -- -- 64
2019-04-16 22:00:00 9.3 9 Nordeste 13 Nordeste 0 -- -- 70
2019-04-16 21:00:00 12.8 4 Sur 17 Sur 0 -- -- 51
2019-04-16 20:00:00 14.4 9 Sur 28 Sur 0 -- -- 43
2019-04-16 19:00:00 15 15 Sur 31 Sur 0 -- -- 40
2019-04-16 18:00:00 15 12 Sur 26 Sur 0 -- -- 43
2019-04-16 17:00:00 14.5 9 Sur 28 Sur 0 -- -- 45
2019-04-16 16:00:00 13.8 9 Sur 23 Sur 0 -- -- 49
2019-04-16 15:00:00 12.9 8 Sur 20 Sur 0 -- -- 55
2019-04-16 14:00:00 12.2 9 Sur 21 Sudeste 0 -- -- 56
2019-04-16 13:00:00 10.6 5 Sudeste 18 Sur 0 -- -- 66
2019-04-16 12:00:00 8.9 6 Sur 13 Sur 0 -- -- 78
2019-04-16 11:00:00 6.8 6 Sudeste 17 Sudeste 0 -- -- 88
2019-04-16 10:00:00 5.6 7 Sudeste 13 Sudeste 0 -- -- 94
2019-04-16 09:00:00 3.4 5 Nordeste 8 Norte 0 -- -- 97
2019-04-16 08:00:00 2.2 4 Norte 14 Norte 0 -- -- 95
2019-04-16 07:00:00 2.7 8 Nordeste 16 Norte 0 -- -- 96
2019-04-16 06:00:00 2.5 7 Norte 11 Norte 0 -- -- 97
2019-04-16 05:00:00 2.5 10 Norte 15 Norte 0 -- -- 97
2019-04-16 04:00:00 3.1 4 Norte 10 Norte 0 -- -- 97
2019-04-16 03:00:00 3.5 8 Norte 11 Norte 0 -- -- 95
2019-04-16 02:00:00 4.5 4 Nordeste 12 Norte 0 -- -- 92
2019-04-16 01:00:00 5.7 9 Noroeste 22 Norte 0 -- -- 86
2019-04-16 00:00:00 5.8 14 Norte 19 Norte 0 -- -- 92
2019-04-15 23:00:00 5.8 11 Norte 17 Nordeste 0 -- -- 92
2019-04-15 22:00:00 6.6 10 Norte 30 Noroeste 0 -- -- 88
2019-04-15 21:00:00 7.3 11 Noroeste 46 Norte 0.4 -- -- 88
2019-04-15 20:00:00 9.4 19 Noroeste 35 Noroeste 0 -- -- 82
2019-04-15 19:00:00 9.7 18 Oeste 42 Noroeste 0 -- -- 82
2019-04-15 18:00:00 11.4 19 Noroeste 46 Noroeste 0 -- -- 70
2019-04-15 17:00:00 9.2 16 Noroeste 51 Noroeste 0 -- -- 82
2019-04-15 16:00:00 8.3 34 Noroeste 59 Noroeste 0.2 -- -- 90
2019-04-15 15:00:00 11.4 39 Noroeste 67 Noroeste 0 -- -- 78
2019-04-15 14:00:00 14.3 16 Oeste 38 Noroeste 0 -- -- 80
2019-04-15 13:00:00 12.3 21 Oeste 39 Oeste 1.6 -- -- 91
2019-04-15 12:00:00 11.6 13 Sudoeste 28 Sur 2 -- -- 96
2019-04-15 11:00:00 11.7 5 Sudoeste 17 Sudoeste 0 -- -- 95
2019-04-15 10:00:00 11.1 5 Sur 13 Sudeste 1.6 -- -- 95
2019-04-15 09:00:00 10.8 4 Sudeste 10 Sudeste 0 -- -- 93
2019-04-15 08:00:00 10.6 5 Sudeste 17 Sudeste 0 -- -- 92
2019-04-15 07:00:00 10.8 7 Sudeste 12 Sudeste 0 -- -- 91
2019-04-15 06:00:00 11.1 4 Este 10 Este 0 -- -- 91
2019-04-15 05:00:00 10.7 3 Sudeste 9 Nordeste 0 -- -- 92
2019-04-15 04:00:00 9.7 6 Norte 10 Norte 0 -- -- 93
2019-04-15 03:00:00 9.8 5 Nordeste 9 Norte 0 -- -- 92
2019-04-15 02:00:00 10.2 4 Nordeste 10 Nordeste 0 -- -- 91
2019-04-15 01:00:00 10.2 3 Nordeste 10 Norte 0 -- -- 90
2019-04-15 00:00:00 10.5 7 Norte 11 Norte 0 -- -- 89
2019-04-14 23:00:00 11.7 7 Nordeste 9 Norte 0 -- -- 83
2019-04-14 22:00:00 13.8 4 Nordeste 14 Sur 0 -- -- 75
2019-04-14 21:00:00 15.6 8 Sudoeste 23 Sudoeste 0 -- -- 66
2019-04-14 20:00:00 17.3 12 Sudoeste 27 Sur 0 -- -- 61
2019-04-14 19:00:00 18.5 5 Oeste 15 Oeste 0 -- -- 58
2019-04-14 18:00:00 19 8 Oeste 21 Noroeste 0 -- -- 56
2019-04-14 17:00:00 18.6 14 Noroeste 26 Oeste 0 -- -- 57
2019-04-14 16:00:00 18.7 13 Oeste 35 Oeste 0 -- -- 56
2019-04-14 15:00:00 17.6 18 Oeste 33 Oeste 0 -- -- 57
2019-04-14 14:00:00 16.8 21 Oeste 40 Oeste 0 -- -- 62
2019-04-14 13:00:00 16.4 17 Oeste 35 Noroeste 0 -- -- 65
2019-04-14 12:00:00 15.2 17 Oeste 30 Oeste 0 -- -- 73
2019-04-14 11:00:00 13.9 15 Oeste 23 Oeste 0 -- -- 79
2019-04-14 10:00:00 11.9 13 Norte 22 Noroeste 0 -- -- 82
2019-04-14 09:00:00 10.7 17 Norte 23 Norte 0 -- -- 89
2019-04-14 08:00:00 9.1 9 Norte 15 Norte 0 -- -- 93
2019-04-14 07:00:00 9.5 8 Norte 18 Norte 0 -- -- 90
2019-04-14 06:00:00 10.2 11 Norte 26 Noroeste 0 -- -- 88
2019-04-14 05:00:00 10.3 8 Norte 24 Norte 0 -- -- 87
2019-04-14 04:00:00 10.3 5 Oeste 21 Noroeste 0 -- -- 87
2019-04-14 03:00:00 10.6 10 Noroeste 25 Noroeste 0 -- -- 85
2019-04-14 02:00:00 10.9 14 Noroeste 30 Noroeste 0 -- -- 82
2019-04-14 01:00:00 11.7 9 Noroeste 25 Noroeste 0 -- -- 73
2019-04-14 00:00:00 11.7 12 Oeste 26 Noroeste 0 -- -- 69
2019-04-13 23:00:00 13.2 14 Noroeste 28 Noroeste 0 -- -- 62
2019-04-13 22:00:00 13.7 18 Noroeste 26 Noroeste 0 -- -- 57
2019-04-13 21:00:00 14.6 13 Noroeste 23 Noroeste 0 -- -- 51
2019-04-13 20:00:00 15.3 11 Noroeste 30 Oeste 0 -- -- 48
2019-04-13 19:00:00 16.2 18 Noroeste 30 Oeste 0 -- -- 44
2019-04-13 18:00:00 16.8 13 Noroeste 29 Oeste 0 -- -- 42
2019-04-13 17:00:00 16.9 12 Oeste 22 Oeste 0 -- -- 39
2019-04-13 16:00:00 17.5 13 Oeste 26 Oeste 0 -- -- 42
2019-04-13 15:00:00 17.1 10 Sur 21 Sudoeste 0 -- -- 44
2019-04-13 14:00:00 15.3 8 Sur 17 Sudoeste 0 -- -- 45
2019-04-13 13:00:00 14.6 5 Sur 15 Sur 0 -- -- 50
2019-04-13 12:00:00 12.8 4 Sudeste 12 Sur 0 -- -- 54
2019-04-13 11:00:00 10.8 6 Sur 11 Sur 0 -- -- 57
2019-04-13 10:00:00 8.7 3 Sudoeste 9 Norte 0 -- -- 60
2019-04-13 09:00:00 5 8 Norte 10 Norte 0 -- -- 78
2019-04-13 08:00:00 3.9 5 Norte 11 Norte 0 -- -- 82
2019-04-13 07:00:00 3.7 7 Norte 13 Norte 0 -- -- 84
2019-04-13 06:00:00 4.3 7 Norte 13 Norte 0 -- -- 80
2019-04-13 05:00:00 4.4 12 Norte 14 Norte 0 -- -- 81
2019-04-13 04:00:00 4.3 6 Norte 11 Norte 0 -- -- 79
2019-04-13 03:00:00 4.7 10 Norte 15 Norte 0 -- -- 77
2019-04-13 02:00:00 4.8 12 Norte 18 Norte 0 -- -- 75
2019-04-13 01:00:00 4.8 11 Norte 15 Norte 0 -- -- 73
2019-04-13 00:00:00 4.9 12 Norte 16 Norte 0 -- -- 73
2019-04-12 23:00:00 6.4 11 Norte 13 Norte 0 -- -- 70
2019-04-12 22:00:00 8.3 8 Norte 10 Nordeste 0 -- -- 68
2019-04-12 21:00:00 12.9 5 Sudoeste 14 Oeste 0 -- -- 45
2019-04-12 20:00:00 15.7 9 Noroeste 24 Noroeste 0 -- -- 32
2019-04-12 19:00:00 16.3 9 Oeste 23 Oeste 0 -- -- 28
2019-04-12 18:00:00 16.4 8 Sudoeste 25 Noroeste 0 -- -- 33
2019-04-12 17:00:00 15.8 8 Sudoeste 18 Sudoeste 0 -- -- 36
2019-04-12 16:00:00 14.6 6 Sudoeste 15 Oeste 0 -- -- 48
2019-04-12 15:00:00 12 6 Sudeste 13 Sur 0 -- -- 58
2019-04-12 14:00:00 9.8 4 Este 10 Sudoeste 0 -- -- 67
2019-04-12 13:00:00 7.6 3 Sudeste 14 Sudeste 0 -- -- 78
2019-04-12 12:00:00 5.2 3 Este 9 Sudoeste 0 -- -- 85
2019-04-12 11:00:00 3.9 2 Sur 6 Sur 0 -- -- 90
2019-04-12 10:00:00 2.9 3 Sudoeste 6 Sudoeste 0 -- -- 94
2019-04-12 09:00:00 1.6 0 Calma 8 Norte 0 -- -- 97
2019-04-12 08:00:00 0.8 8 Norte 12 Norte 0 -- -- 96
2019-04-12 07:00:00 0.8 10 Norte 14 Norte 0 -- -- 95
2019-04-12 06:00:00 0.3 12 Norte 15 Norte 0 -- -- 96
2019-04-12 05:00:00 0.5 11 Norte 13 Norte 0 -- -- 95
2019-04-12 04:00:00 0.9 5 Norte 8 Norte 0 -- -- 94
2019-04-12 03:00:00 0.5 3 Sudoeste 13 Norte 0 -- -- 85
2019-04-12 02:00:00 2.1 9 Norte 13 Norte 0 -- -- 85
2019-04-12 01:00:00 2.9 7 Norte 11 Norte 0 -- -- 85
2019-04-12 00:00:00 4.6 9 Norte 16 Norte 0 -- -- 79
2019-04-11 23:00:00 5.9 11 Norte 14 Norte 0 -- -- 73
2019-04-11 22:00:00 6.7 9 Norte 13 Norte 0 -- -- 70
2019-04-11 21:00:00 8.3 9 Este 17 Este 0 -- -- 68
2019-04-11 20:00:00 9.6 13 Este 18 Este 0 -- -- 62
2019-04-11 19:00:00 10.5 4 Sudeste 15 Este 0 -- -- 55
2019-04-11 18:00:00 11 3 Sur 11 Sur 0 -- -- 54
2019-04-11 17:00:00 10.8 0 Calma 15 Nordeste 0 -- -- 52
2019-04-11 16:00:00 9.5 11 Norte 21 Norte 0 -- -- 57
2019-04-11 15:00:00 9.6 7 Norte 17 Norte 0 -- -- 53
2019-04-11 14:00:00 9 8 Noroeste 25 Noroeste 0 -- -- 56
2019-04-11 13:00:00 8.8 14 Oeste 29 Noroeste 0 -- -- 60
2019-04-11 12:00:00 8.9 10 Oeste 22 Oeste 0 -- -- 62
2019-04-11 11:00:00 6.8 12 Oeste 23 Noroeste 0 -- -- 71
2019-04-11 10:00:00 4.9 2 Nordeste 11 Norte 0 -- -- 82
2019-04-11 09:00:00 1.7 7 Norte 14 Noroeste 0 -- -- 92
2019-04-11 08:00:00 0.9 8 Norte 12 Norte 0 -- -- 92
2019-04-11 07:00:00 1.1 6 Norte 11 Norte 0 -- -- 93
2019-04-11 06:00:00 1.2 8 Norte 12 Norte 0 -- -- 92
2019-04-11 05:00:00 2 5 Norte 10 Norte 0 -- -- 90
2019-04-11 04:00:00 2 5 Norte 10 Norte 0 -- -- 90
2019-04-11 03:00:00 2.1 4 Norte 10 Norte 0 -- -- 87
2019-04-11 02:00:00 2.6 4 Nordeste 11 Norte 0 -- -- 89
2019-04-11 01:00:00 2.9 9 Norte 12 Norte 0 -- -- 82
2019-04-11 00:00:00 2.7 7 Norte 10 Norte 0 -- -- 89
2019-04-10 23:00:00 3.8 6 Norte 9 Noroeste 0 -- -- 84
2019-04-10 22:00:00 5.2 0 Calma 10 Oeste 0 -- -- 72
2019-04-10 21:00:00 6.9 12 Norte 28 Norte 0 -- -- 69
2019-04-10 20:00:00 8.6 19 Norte 31 Nordeste 0 -- -- 59
2019-04-10 19:00:00 8.8 23 Norte 36 Norte 0 -- -- 66
2019-04-10 18:00:00 9.3 27 Norte 39 Norte 0 -- -- 58
2019-04-10 17:00:00 9.5 27 Norte 43 Norte 0 -- -- 59
2019-04-10 16:00:00 9.3 25 Norte 41 Norte 0 -- -- 61
2019-04-10 15:00:00 9 22 Norte 45 Norte 0 -- -- 66
2019-04-10 14:00:00 8.3 22 Norte 37 Norte 0 -- -- 67
2019-04-10 13:00:00 8.3 19 Noroeste 32 Norte 0 -- -- 74
2019-04-10 12:00:00 5.7 14 Noroeste 35 Oeste 0 -- -- 92
2019-04-10 11:00:00 4.6 21 Noroeste 36 Noroeste 0 -- -- 94
2019-04-10 10:00:00 4 14 Noroeste 35 Oeste 0 -- -- 92
2019-04-10 09:00:00 3.2 13 Noroeste 37 Noroeste 0 -- -- 93
2019-04-10 08:00:00 2.7 20 Noroeste 39 Oeste 0.2 -- -- 92
2019-04-10 07:00:00 2.7 15 Noroeste 37 Noroeste 0.4 -- -- 92
2019-04-10 06:00:00 2.7 16 Noroeste 34 Noroeste 0.6 -- -- 92
2019-04-10 05:00:00 2.8 19 Noroeste 41 Noroeste 0.2 -- -- 92
2019-04-10 04:00:00 3.3 19 Noroeste 42 Noroeste 0 -- -- 92
2019-04-10 03:00:00 3.4 21 Noroeste 42 Oeste 0 -- -- 92
2019-04-10 02:00:00 3.2 20 Noroeste 35 Noroeste 0 -- -- 92
2019-04-10 01:00:00 3.2 13 Noroeste 36 Noroeste 0 -- -- 92
2019-04-10 00:00:00 3.2 17 Noroeste 32 Oeste 0.2 -- -- 93
2019-04-09 23:00:00 3.9 12 Noroeste 25 Noroeste 0.2 -- -- 92
2019-04-09 22:00:00 3.8 15 Noroeste 27 Noroeste 0.4 -- -- 91
2019-04-09 21:00:00 4.1 12 Noroeste 29 Noroeste 1 -- -- 90
2019-04-09 20:00:00 4.6 15 Oeste 40 Noroeste 0.4 -- -- 92
2019-04-09 19:00:00 5.1 18 Noroeste 38 Oeste 0.4 -- -- 88
2019-04-09 18:00:00 6.9 22 Noroeste 44 Noroeste 0 -- -- 74
2019-04-09 17:00:00 7.1 30 Noroeste 48 Noroeste 0 -- -- 69
2019-04-09 16:00:00 5.9 22 Oeste 42 Oeste 0.4 -- -- 91
2019-04-09 15:00:00 6.1 18 Noroeste 32 Oeste 0 -- -- 78
2019-04-09 14:00:00 4.9 15 Noroeste 32 Noroeste 0 -- -- 84
2019-04-09 13:00:00 4.2 8 Noroeste 32 Noroeste 0 -- -- 89
2019-04-09 12:00:00 2.8 20 Noroeste 32 Oeste 0.2 -- -- 93
2019-04-09 11:00:00 2.4 2 Sudoeste 10 Nordeste 0.6 -- -- 98
2019-04-09 10:00:00 1 6 Norte 11 Norte 2 -- -- 97
2019-04-09 09:00:00 1.6 6 Norte 9 Norte 1.4 -- -- 96
2019-04-09 08:00:00 1.9 6 Norte 10 Norte 0.8 -- -- 95
2019-04-09 07:00:00 2.6 6 Nordeste 9 Nordeste 0.8 -- -- 93
2019-04-09 06:00:00 3.1 0 Calma 5 Este 1 -- -- 91
2019-04-09 05:00:00 3.5 2 Sudeste 6 Este 0 -- -- 89
2019-04-09 04:00:00 3.4 2 Norte 6 Noroeste 0 -- -- 87
2019-04-09 03:00:00 3.3 2 Oeste 12 Noroeste 0 -- -- 85
2019-04-09 02:00:00 4 8 Noroeste 13 Noroeste 0 -- -- 80
2019-04-09 01:00:00 3.8 5 Noroeste 10 Noroeste 0 -- -- 79
2019-04-09 00:00:00 3.8 3 Sudoeste 15 Noroeste 0 -- -- 77
2019-04-08 23:00:00 4.6 3 Sudoeste 16 Noroeste 0 -- -- 74
2019-04-08 22:00:00 6 9 Noroeste 17 Oeste 0 -- -- 68
2019-04-08 21:00:00 6.9 11 Noroeste 28 Oeste 0 -- -- 64
2019-04-08 20:00:00 8.9 13 Oeste 34 Noroeste 0 -- -- 58
2019-04-08 19:00:00 9.6 13 Noroeste 26 Oeste 0 -- -- 54
2019-04-08 18:00:00 10.6 21 Noroeste 31 Oeste 0 -- -- 49
2019-04-08 17:00:00 10.5 16 Noroeste 37 Oeste 0 -- -- 49
2019-04-08 16:00:00 9.9 18 Noroeste 35 Noroeste 0 -- -- 54
2019-04-08 15:00:00 9.1 16 Noroeste 36 Oeste 0 -- -- 61
2019-04-08 14:00:00 8.4 20 Noroeste 36 Noroeste 0 -- -- 66
2019-04-08 13:00:00 7.5 17 Oeste 37 Oeste 0 -- -- 71
2019-04-08 12:00:00 6.4 21 Oeste 34 Oeste 0 -- -- 74
2019-04-08 11:00:00 5.5 17 Noroeste 31 Noroeste 0 -- -- 80
2019-04-08 10:00:00 4.3 14 Oeste 31 Oeste 0 -- -- 92
2019-04-08 09:00:00 3.9 18 Noroeste 28 Noroeste 0 -- -- 97
2019-04-08 08:00:00 3.3 5 Oeste 15 Oeste 0.2 -- -- 98
2019-04-08 07:00:00 2.8 2 Oeste 4 Noroeste 0.2 -- -- 98
2019-04-08 06:00:00 2.9 0 Calma 8 Norte 0 -- -- 97
2019-04-08 05:00:00 3.1 4 Norte 9 Noroeste 0.4 -- -- 98
2019-04-08 04:00:00 3.1 2 Norte 7 Norte 0.4 -- -- 97
2019-04-08 03:00:00 3.1 3 Nordeste 9 Nordeste 0.4 -- -- 96
2019-04-08 02:00:00 3 5 Este 12 Este 0.4 -- -- 96
2019-04-08 01:00:00 3.1 6 Nordeste 14 Este 0.8 -- -- 96
2019-04-08 00:00:00 3.4 7 Este 12 Este 1.2 -- -- 97
2019-04-07 23:00:00 3.4 3 Sudeste 9 Sudeste 1.8 -- -- 97
2019-04-07 22:00:00 3.5 5 Sudeste 12 Sur 1.6 -- -- 96
2019-04-07 21:00:00 3.4 5 Sur 13 Sudoeste 1 -- -- 95
2019-04-07 20:00:00 3.5 4 Sur 12 Sur 2 -- -- 93
2019-04-07 19:00:00 4 5 Sudoeste 17 Sudoeste 1.2 -- -- 91
2019-04-07 18:00:00 4.5 12 Noroeste 24 Oeste 0.8 -- -- 88
2019-04-07 17:00:00 7.2 6 Oeste 21 Oeste 0 -- -- 71
2019-04-07 16:00:00 8.2 4 Noroeste 15 Oeste 0 -- -- 57
2019-04-07 15:00:00 8.1 3 Noroeste 22 Noroeste 0 -- -- 65
2019-04-07 14:00:00 6.5 9 Noroeste 26 Noroeste 0 -- -- 67
2019-04-07 13:00:00 5.2 10 Noroeste 28 Oeste 0 -- -- 70
2019-04-07 12:00:00 4.5 15 Noroeste 27 Noroeste 0 -- -- 75
2019-04-07 11:00:00 3.3 12 Noroeste 26 Noroeste 0 -- -- 79
2019-04-07 10:00:00 2.2 12 Noroeste 21 Noroeste 0 -- -- 81
2019-04-07 09:00:00 0.9 12 Norte 35 Noroeste 0 -- -- 84
2019-04-07 08:00:00 0.4 5 Norte 27 Noroeste 0 -- -- 89
2019-04-07 07:00:00 0.3 14 Noroeste 33 Noroeste 0 -- -- 89
2019-04-07 06:00:00 0.4 16 Noroeste 34 Noroeste 0 -- -- 93
2019-04-07 05:00:00 0.7 12 Noroeste 33 Noroeste 0 -- -- 95
2019-04-07 04:00:00 0.8 16 Noroeste 31 Noroeste 0 -- -- 95
2019-04-07 03:00:00 0.6 15 Noroeste 36 Noroeste 0 -- -- 97
2019-04-07 02:00:00 0.7 17 Noroeste 32 Oeste 0.2 -- -- 98
2019-04-07 01:00:00 0.9 16 Noroeste 33 Oeste 0 -- -- 97
2019-04-07 00:00:00 1.1 13 Noroeste 30 Noroeste 0 -- -- 95
2019-04-06 23:00:00 1.2 14 Noroeste 33 Noroeste 0 -- -- 93
2019-04-06 22:00:00 1.2 8 Oeste 31 Noroeste 0 -- -- 95
2019-04-06 21:00:00 1.3 9 Sudoeste 57 Noroeste 0 -- -- 90
2019-04-06 20:00:00 1.8 31 Noroeste 55 Noroeste 0.4 -- -- 92
2019-04-06 19:00:00 1.4 26 Noroeste 49 Noroeste 0.6 -- -- 94
2019-04-06 18:00:00 2 24 Noroeste 44 Noroeste 0.4 -- -- 92
2019-04-06 17:00:00 2.5 22 Noroeste 41 Noroeste 0.4 -- -- 93
2019-04-06 16:00:00 4.1 22 Noroeste 46 Oeste 0.2 -- -- 90
2019-04-06 15:00:00 3.3 17 Noroeste 39 Noroeste 0.4 -- -- 92
2019-04-06 14:00:00 2.7 14 Oeste 39 Oeste 0.6 -- -- 95
2019-04-06 13:00:00 3 16 Noroeste 28 Noroeste 0.4 -- -- 88
2019-04-06 12:00:00 2.7 6 Oeste 16 Oeste 0.2 -- -- 86
2019-04-06 11:00:00 2.3 3 Sur 9 Sur 0.4 -- -- 93
2019-04-06 10:00:00 0.9 3 Sur 10 Este 0.4 -- -- 97
2019-04-06 09:00:00 0.4 4 Sudeste 6 Sudeste 0 -- -- 97
2019-04-06 08:00:00 0 0 Calma 4 Sur 0 -- -- 97
2019-04-06 07:00:00 0.1 2 Sur 8 Sur 0 -- -- 96
2019-04-06 06:00:00 0.5 0 Calma 5 Sudoeste 0 -- -- 95
2019-04-06 05:00:00 0.8 2 Oeste 9 Oeste 0 -- -- 95
2019-04-06 04:00:00 1.1 3 Oeste 14 Oeste 0 -- -- 92
2019-04-06 03:00:00 1.5 10 Oeste 25 Oeste 0 -- -- 90
2019-04-06 02:00:00 1.3 13 Noroeste 24 Noroeste 0 -- -- 93
2019-04-06 01:00:00 1.4 14 Noroeste 28 Noroeste 0 -- -- 92
2019-04-06 00:00:00 1.5 10 Noroeste 19 Noroeste 0 -- -- 93
2019-04-05 23:00:00 1.9 10 Noroeste 27 Noroeste 0 -- -- 89
2019-04-05 22:00:00 1.9 14 Noroeste 23 Noroeste 0.2 -- -- 89
2019-04-05 21:00:00 2.6 17 Noroeste 29 Noroeste 0 -- -- 85
2019-04-05 20:00:00 3.8 18 Noroeste 47 Noroeste 0 -- -- 77
2019-04-05 19:00:00 6.5 21 Noroeste 35 Noroeste 0 -- -- 65
2019-04-05 18:00:00 6.8 20 Oeste 41 Oeste 0 -- -- 53
2019-04-05 17:00:00 6.8 15 Noroeste 35 Noroeste 0 -- -- 50
2019-04-05 16:00:00 7 19 Noroeste 39 Oeste 0 -- -- 48
2019-04-05 15:00:00 6.5 16 Noroeste 32 Noroeste 0 -- -- 53
2019-04-05 14:00:00 5.8 15 Noroeste 31 Noroeste 0 -- -- 60
2019-04-05 13:00:00 3.7 21 Noroeste 37 Oeste 0 -- -- 65
2019-04-05 12:00:00 3.8 21 Noroeste 33 Noroeste 0 -- -- 70
2019-04-05 11:00:00 2.2 13 Noroeste 24 Noroeste 0 -- -- 81
2019-04-05 10:00:00 1.7 13 Noroeste 24 Noroeste 0 -- -- 86
2019-04-05 09:00:00 0.6 17 Noroeste 33 Noroeste 0 -- -- 90
2019-04-05 08:00:00 0.6 20 Noroeste 30 Oeste 0 -- -- 92
2019-04-05 07:00:00 1.1 7 Noroeste 18 Oeste 0.2 -- -- 95
2019-04-05 06:00:00 1.1 4 Noroeste 6 Norte 0 -- -- 97
2019-04-05 05:00:00 1 0 Calma 6 Sudoeste 0 -- -- 97
2019-04-05 04:00:00 1 3 Sudoeste 8 Sudoeste 0 -- -- 97
2019-04-05 03:00:00 1 3 Sudoeste 17 Sudoeste 0 -- -- 97
2019-04-05 02:00:00 1.2 6 Sudoeste 22 Sur 0.4 -- -- 97
2019-04-05 01:00:00 1.4 8 Sur 20 Sur 0.4 -- -- 97
2019-04-05 00:00:00 1.2 5 Sudoeste 16 Sur 0.6 -- -- 95
2019-04-04 23:00:00 1.6 5 Sur 15 Sudoeste 0 -- -- 95
2019-04-04 22:00:00 2 6 Sudoeste 15 Sudoeste 0.2 -- -- 94
2019-04-04 21:00:00 2.3 3 Sur 9 Sur 0.8 -- -- 92
2019-04-04 20:00:00 2.7 4 Noroeste 14 Oeste 0.4 -- -- 90
2019-04-04 19:00:00 3.2 10 Noroeste 19 Noroeste 0 -- -- 86
2019-04-04 18:00:00 4.4 12 Noroeste 22 Noroeste 0 -- -- 76
2019-04-04 17:00:00 4.1 16 Noroeste 33 Oeste 0 -- -- 80
2019-04-04 16:00:00 5.5 11 Noroeste 30 Noroeste 0 -- -- 55
2019-04-04 15:00:00 5.2 18 Oeste 38 Oeste 0 -- -- 56
2019-04-04 14:00:00 4.8 23 Noroeste 40 Noroeste 0 -- -- 55
2019-04-04 13:00:00 3.4 13 Noroeste 32 Noroeste 0 -- -- 69
2019-04-04 12:00:00 2.1 16 Noroeste 35 Oeste 0 -- -- 80
2019-04-04 11:00:00 2.2 13 Oeste 33 Noroeste 0 -- -- 80
2019-04-04 10:00:00 0.9 13 Oeste 30 Noroeste 0 -- -- 87
2019-04-04 09:00:00 -0.6 5 Noroeste 19 Oeste 0 -- -- 89
2019-04-04 08:00:00 -0.9 4 Noroeste 16 Noroeste 0 -- -- 88
2019-04-04 07:00:00 -0.8 4 Oeste 23 Noroeste 0 -- -- 86
2019-04-04 06:00:00 -0.9 12 Noroeste 21 Norte 0 -- -- 87
2019-04-04 05:00:00 -1.4 10 Noroeste 20 Oeste 0 -- -- 86
2019-04-04 04:00:00 -0.6 7 Noroeste 24 Noroeste 0 -- -- 81
2019-04-04 03:00:00 -0.7 12 Noroeste 29 Noroeste 0 -- -- 83
2019-04-04 02:00:00 -1.1 13 Noroeste 25 Noroeste 0 -- -- 88
2019-04-04 01:00:00 -0.5 9 Norte 26 Noroeste 0 -- -- 85
2019-04-04 00:00:00 -0.3 15 Noroeste 22 Oeste 0 -- -- 85
2019-04-03 23:00:00 0.8 4 Noroeste 17 Noroeste 0 -- -- 72
2019-04-03 22:00:00 1.4 8 Norte 18 Norte 0 -- -- 72
2019-04-03 21:00:00 2.2 9 Norte 31 Norte 0 -- -- 67
2019-04-03 20:00:00 3.6 18 Norte 29 Nordeste 0 -- -- 55
2019-04-03 19:00:00 4.7 19 Norte 53 Nordeste 0 -- -- 59
2019-04-03 18:00:00 5.5 28 Norte 41 Nordeste 0 -- -- 52
2019-04-03 17:00:00 5.7 23 Norte 48 Nordeste 0 -- -- 52
2019-04-03 16:00:00 4.8 20 Norte 47 Norte 0 -- -- 63
2019-04-03 15:00:00 6.2 29 Norte 50 Norte 0 -- -- 55
2019-04-03 14:00:00 4.4 15 Norte 28 Norte 0 -- -- 68
2019-04-03 13:00:00 3.7 19 Norte 34 Oeste 0 -- -- 74
2019-04-03 12:00:00 4.5 26 Noroeste 40 Norte 0 -- -- 58
2019-04-03 11:00:00 3.1 14 Noroeste 32 Noroeste 0 -- -- 75
2019-04-03 10:00:00 2.2 16 Noroeste 30 Oeste 0 -- -- 83
2019-04-03 09:00:00 1.1 17 Noroeste 34 Oeste 0 -- -- 88
2019-04-03 08:00:00 1 9 Noroeste 30 Noroeste 0 -- -- 86
2019-04-03 07:00:00 0.8 21 Noroeste 31 Noroeste 0 -- -- 88
2019-04-03 06:00:00 1.5 7 Norte 20 Norte 0 -- -- 81
2019-04-03 05:00:00 2.7 7 Norte 24 Noroeste 0 -- -- 78
2019-04-03 04:00:00 3.7 8 Noroeste 25 Noroeste 0 -- -- 74
2019-04-03 03:00:00 4.3 8 Norte 19 Noroeste 0 -- -- 76
2019-04-03 02:00:00 4.7 4 Nordeste 17 Norte 0 -- -- 71
2019-04-03 01:00:00 5.5 4 Oeste 19 Norte 0 -- -- 64
2019-04-03 00:00:00 6.4 9 Norte 19 Noroeste 0 -- -- 62
2019-04-02 23:00:00 6.5 5 Noroeste 19 Norte 0 -- -- 61
2019-04-02 22:00:00 7.6 10 Norte 28 Noroeste 0 -- -- 62
2019-04-02 21:00:00 9 18 Noroeste 34 Noroeste 0 -- -- 55
2019-04-02 20:00:00 10.6 20 Noroeste 40 Noroeste 0 -- -- 47
2019-04-02 19:00:00 13 23 Noroeste 47 Noroeste 0 -- -- 39
2019-04-02 18:00:00 14.2 23 Noroeste 57 Noroeste 0 -- -- 36
2019-04-02 17:00:00 14.9 21 Noroeste 43 Oeste 0 -- -- 37
2019-04-02 16:00:00 14.5 18 Noroeste 40 Oeste 0 -- -- 38
2019-04-02 15:00:00 14.1 21 Oeste 38 Noroeste 0 -- -- 39
2019-04-02 14:00:00 13.2 15 Oeste 30 Oeste 0 -- -- 47
2019-04-02 13:00:00 12.1 13 Oeste 30 Oeste 0 -- -- 53
2019-04-02 12:00:00 10.3 18 Oeste 29 Oeste 0 -- -- 64
2019-04-02 11:00:00 8.5 18 Noroeste 26 Oeste 0 -- -- 70
2019-04-02 10:00:00 7.6 2 Sudoeste 14 Noroeste 0 -- -- 75
2019-04-02 09:00:00 4.6 9 Norte 17 Norte 0 -- -- 84
2019-04-02 08:00:00 3.6 8 Noroeste 18 Norte 0 -- -- 86
2019-04-02 07:00:00 3.2 12 Norte 15 Norte 0 -- -- 86
2019-04-02 06:00:00 3.7 4 Noroeste 15 Norte 0 -- -- 78
2019-04-02 05:00:00 4.1 8 Norte 16 Norte 0 -- -- 81
2019-04-02 04:00:00 4.5 10 Norte 16 Norte 0 -- -- 80
2019-04-02 03:00:00 4.4 14 Norte 17 Norte 0.2 -- -- 81
2019-04-02 02:00:00 5.4 9 Nordeste 12 Norte 0 -- -- 79
2019-04-02 01:00:00 6.7 6 Norte 13 Norte 0 -- -- 71
2019-04-02 00:00:00 7 5 Oeste 12 Norte 0 -- -- 68
2019-04-01 23:00:00 9.3 10 Norte 23 Norte 0 -- -- 65
2019-04-01 22:00:00 10 9 Norte 16 Norte 0 -- -- 59
2019-04-01 21:00:00 11.1 10 Nordeste 17 Este 0 -- -- 58
2019-04-01 20:00:00 13.3 2 Este 20 Norte 0 -- -- 58
2019-04-01 19:00:00 14.5 4 Nordeste 15 Norte 0 -- -- 48
2019-04-01 18:00:00 11.9 5 Sudoeste 21 Sudoeste 0 -- -- 56
2019-04-01 17:00:00 12 6 Sudoeste 15 Sudoeste 0.2 -- -- 57
2019-04-01 16:00:00 12.4 5 Sur 33 Sudoeste 0.6 -- -- 60
2019-04-01 15:00:00 16.3 9 Sudoeste 21 Sudoeste 0 -- -- 41
2019-04-01 14:00:00 14.3 5 Sudoeste 15 Sudoeste 0 -- -- 53
2019-04-01 13:00:00 12.8 8 Oeste 17 Sudoeste 0 -- -- 53
2019-04-01 12:00:00 11.3 5 Sudoeste 16 Sur 0 -- -- 64
2019-04-01 11:00:00 9.2 4 Sur 9 Sur 0 -- -- 71
2019-04-01 10:00:00 5.8 2 Norte 11 Norte 0 -- -- 85
2019-04-01 09:00:00 2.9 10 Norte 14 Norte 0 -- -- 93
2019-04-01 08:00:00 2 11 Norte 15 Norte 0 -- -- 94
2019-04-01 07:00:00 2.5 8 Norte 13 Norte 0 -- -- 93
2019-04-01 06:00:00 3 10 Norte 14 Norte 0 -- -- 91
2019-04-01 05:00:00 3.6 10 Norte 13 Norte 0 -- -- 89
2019-04-01 04:00:00 4.8 9 Norte 12 Norte 0 -- -- 84
2019-04-01 03:00:00 4.6 8 Norte 10 Norte 0 -- -- 83
2019-04-01 02:00:00 5.1 5 Norte 12 Norte 0 -- -- 79
2019-04-01 01:00:00 6.3 6 Nordeste 9 Nordeste 0 -- -- 76
2019-04-01 00:00:00 8.3 3 Noroeste 13 Nordeste 0 -- -- 62
2019-03-31 23:00:00 9.7 11 Nordeste 19 Nordeste 0 -- -- 58
2019-03-31 22:00:00 10.5 15 Nordeste 21 Nordeste 0 -- -- 59
2019-03-31 21:00:00 11.4 9 Nordeste 24 Nordeste 0 -- -- 58
2019-03-31 20:00:00 12.6 16 Nordeste 37 Este 0 -- -- 49
2019-03-31 19:00:00 13.1 3 Norte 20 Oeste 0 -- -- 47
2019-03-31 18:00:00 15.6 7 Sudeste 18 Este 0 -- -- 36
2019-03-31 17:00:00 13.2 13 Nordeste 37 Este 0 -- -- 44
2019-03-31 16:00:00 14.4 15 Este 32 Este 0 -- -- 41
2019-03-31 15:00:00 16 10 Sudeste 25 Sur 0 -- -- 34
2019-03-31 14:00:00 15.8 10 Sur 25 Sur 0 -- -- 38
2019-03-31 13:00:00 14.6 10 Sur 25 Sudeste 0 -- -- 42
2019-03-31 12:00:00 13 10 Sudeste 22 Este 0 -- -- 45
2019-03-31 11:00:00 11.7 7 Sudeste 17 Sudeste 0 -- -- 46
2019-03-31 10:00:00 8.3 3 Nordeste 10 Norte 0 -- -- 59
2019-03-31 09:00:00 4.8 9 Norte 13 Norte 0 -- -- 74
2019-03-31 08:00:00 3.8 11 Norte 15 Norte 0 -- -- 77
2019-03-31 07:00:00 4 10 Norte 15 Norte 0 -- -- 77
2019-03-31 06:00:00 4.2 12 Norte 15 Norte 0 -- -- 81
2019-03-31 05:00:00 5.1 9 Norte 12 Norte 0 -- -- 78
2019-03-31 03:00:00 6.1 10 Norte 14 Norte 0 -- -- 73
2019-03-31 01:00:00 7 8 Norte 15 Norte 0 -- -- 71
2019-03-31 00:00:00 7.6 7 Norte 13 Nordeste 0 -- -- 70
2019-03-30 23:00:00 8.9 9 Norte 15 Norte 0 -- -- 65
2019-03-30 22:00:00 9.8 12 Norte 19 Norte 0 -- -- 63
2019-03-30 21:00:00 9.4 7 Nordeste 13 Nordeste 0 -- -- 68
2019-03-30 20:00:00 11.4 8 Norte 22 Oeste 0 -- -- 57
2019-03-30 19:00:00 13.2 10 Noroeste 15 Noroeste 0 -- -- 47
2019-03-30 18:00:00 14.2 10 Noroeste 31 Norte 0 -- -- 42
2019-03-30 17:00:00 12.3 23 Norte 36 Norte 0 -- -- 53
2019-03-30 16:00:00 12.8 16 Noroeste 32 Noroeste 0 -- -- 48
2019-03-30 15:00:00 13 15 Noroeste 26 Oeste 0 -- -- 44
2019-03-30 14:00:00 13 8 Este 14 Sudeste 0 -- -- 49
2019-03-30 13:00:00 12.3 12 Norte 20 Norte 0 -- -- 50
2019-03-30 12:00:00 12.6 8 Sur 16 Sur 0 -- -- 50
2019-03-30 11:00:00 10.5 5 Sur 13 Sudeste 0 -- -- 52
2019-03-30 10:00:00 9.1 7 Sudeste 15 Sudeste 0 -- -- 52
2019-03-30 09:00:00 6 0 Calma 7 Sudeste 0 -- -- 66
2019-03-30 08:00:00 5.4 0 Calma 6 Sudeste 0 -- -- 68
2019-03-30 07:00:00 4.7 2 Sudeste 7 Sudeste 0 -- -- 67
2019-03-30 06:00:00 4.9 0 Calma 10 Norte 0 -- -- 79
2019-03-30 05:00:00 4.9 3 Nordeste 11 Norte 0 -- -- 77
2019-03-30 04:00:00 4.1 5 Sudoeste 17 Norte 0 -- -- 73
2019-03-30 03:00:00 5.1 14 Norte 18 Norte 0 -- -- 71
2019-03-30 02:00:00 5.4 12 Norte 14 Norte 0 -- -- 69
2019-03-30 01:00:00 5.9 10 Norte 18 Norte 0 -- -- 64
2019-03-30 00:00:00 6.2 15 Norte 18 Norte 0 -- -- 62
2019-03-29 23:00:00 7.1 9 Norte 10 Norte 0 -- -- 68
2019-03-29 22:00:00 9.3 6 Nordeste 13 Nordeste 0 -- -- 62
2019-03-29 21:00:00 10.8 6 Nordeste 12 Sur 0 -- -- 53
2019-03-29 20:00:00 13.5 4 Sudoeste 12 Sudoeste 0 -- -- 42
2019-03-29 19:00:00 14.7 5 Sudoeste 15 Sudoeste 0 -- -- 38
2019-03-29 18:00:00 15.4 5 Oeste 24 Sudoeste 0 -- -- 36
2019-03-29 17:00:00 17.7 7 Oeste 23 Oeste 0 -- -- 34
2019-03-29 16:00:00 17.5 8 Sur 22 Sur 0 -- -- 35
2019-03-29 15:00:00 16.4 8 Sudeste 17 Sur 0 -- -- 38
2019-03-29 14:00:00 15.5 9 Sur 18 Sudeste 0 -- -- 38
2019-03-29 13:00:00 14.6 6 Sur 17 Sudoeste 0 -- -- 41
2019-03-29 12:00:00 13.5 8 Sur 21 Sur 0 -- -- 43
2019-03-29 11:00:00 11.6 5 Sudoeste 14 Sur 0 -- -- 49
2019-03-29 10:00:00 9.3 5 Sur 10 Sudoeste 0 -- -- 48
2019-03-29 09:00:00 5.3 2 Nordeste 12 Norte 0 -- -- 69
2019-03-29 08:00:00 2.3 11 Norte 15 Norte 0 -- -- 79
2019-03-29 07:00:00 1.7 11 Norte 17 Norte 0 -- -- 78
2019-03-29 06:00:00 2.2 12 Norte 17 Norte 0 -- -- 76
2019-03-29 05:00:00 2.3 14 Norte 19 Norte 0 -- -- 74
2019-03-29 04:00:00 2.5 14 Norte 17 Norte 0 -- -- 75
2019-03-29 03:00:00 2.7 14 Norte 18 Norte 0 -- -- 75
2019-03-29 02:00:00 3.2 14 Norte 17 Nordeste 0 -- -- 73
2019-03-29 01:00:00 3.6 13 Norte 17 Norte 0 -- -- 72
2019-03-29 00:00:00 4.3 11 Norte 14 Norte 0 -- -- 69
2019-03-28 23:00:00 5.3 9 Norte 16 Norte 0 -- -- 65
2019-03-28 22:00:00 6.7 10 Norte 12 Norte 0 -- -- 62
2019-03-28 21:00:00 8.9 5 Nordeste 10 Este 0 -- -- 62
2019-03-28 20:00:00 13.3 6 Sur 17 Sur 0 -- -- 37
2019-03-28 19:00:00 15.9 11 Sur 23 Sur 0 -- -- 30
2019-03-28 18:00:00 17.2 10 Sur 23 Sudeste 0 -- -- 26
2019-03-28 17:00:00 17.7 12 Sur 27 Sur 0 -- -- 25
2019-03-28 16:00:00 18.1 10 Sur 28 Sudoeste 0 -- -- 23
2019-03-28 15:00:00 17.6 11 Sur 27 Sur 0 -- -- 25
2019-03-28 14:00:00 16.8 12 Sur 25 Sudoeste 0 -- -- 25
2019-03-28 13:00:00 15.6 12 Sudoeste 22 Sur 0 -- -- 30
2019-03-28 12:00:00 14 11 Sur 21 Sur 0 -- -- 35
2019-03-28 11:00:00 11.1 6 Sudoeste 12 Sudoeste 0 -- -- 35
2019-03-28 10:00:00 8.6 4 Sur 8 Sudoeste 0 -- -- 37
2019-03-28 09:00:00 4.1 4 Norte 12 Norte 0 -- -- 55
2019-03-28 08:00:00 0.6 9 Norte 14 Norte 0 -- -- 72
2019-03-28 07:00:00 0 9 Norte 19 Norte 0 -- -- 78
2019-03-28 06:00:00 0.3 12 Norte 15 Norte 0 -- -- 77
2019-03-28 05:00:00 0.9 9 Norte 12 Norte 0 -- -- 75
2019-03-28 04:00:00 2 8 Norte 13 Norte 0 -- -- 69
2019-03-28 03:00:00 2.7 9 Norte 11 Norte 0 -- -- 69
2019-03-28 02:00:00 3.6 6 Nordeste 9 Nordeste 0 -- -- 70
2019-03-28 01:00:00 5.5 5 Norte 9 Norte 0 -- -- 59
2019-03-28 00:00:00 8.4 4 Sudoeste 17 Nordeste 0 -- -- 37
2019-03-27 23:00:00 10.5 13 Nordeste 27 Este 0 -- -- 40
2019-03-27 22:00:00 8.6 5 Oeste 14 Nordeste 0 -- -- 41
2019-03-27 21:00:00 8.7 8 Norte 15 Este 0 -- -- 49
2019-03-27 20:00:00 11.7 7 Nordeste 16 Sudoeste 0 -- -- 43
2019-03-27 19:00:00 16.7 8 Sur 19 Oeste 0 -- -- 23
2019-03-27 18:00:00 18.3 10 Sudoeste 22 Sur 0 -- -- 19
2019-03-27 17:00:00 18.9 10 Sudoeste 26 Sudoeste 0 -- -- 19
2019-03-27 16:00:00 18.8 11 Sur 23 Sur 0 -- -- 21
2019-03-27 15:00:00 18.6 11 Sur 23 Sudoeste 0 -- -- 19
2019-03-27 14:00:00 17.1 5 Sudeste 24 Sur 0 -- -- 19
2019-03-27 13:00:00 16.5 12 Sudoeste 23 Sudoeste 0 -- -- 20
2019-03-27 12:00:00 15.3 6 Sur 16 Sur 0 -- -- 19
2019-03-27 11:00:00 13 6 Sudoeste 13 Sudoeste 0 -- -- 19
2019-03-27 10:00:00 10.2 3 Oeste 8 Sudoeste 0 -- -- 18
2019-03-27 09:00:00 5.3 4 Noroeste 15 Norte 0 -- -- 42
2019-03-27 08:00:00 1.4 10 Norte 19 Norte 0 -- -- 48
2019-03-27 07:00:00 0.2 13 Norte 17 Norte 0 -- -- 51
2019-03-27 06:00:00 0.4 11 Norte 15 Norte 0 -- -- 46
2019-03-27 05:00:00 0.9 10 Norte 13 Nordeste 0 -- -- 49
2019-03-27 04:00:00 1 8 Nordeste 11 Norte 0 -- -- 56
2019-03-27 03:00:00 1.4 5 Norte 10 Nordeste 0 -- -- 59
2019-03-27 02:00:00 2.8 4 Norte 8 Norte 0 -- -- 52
2019-03-27 01:00:00 4.6 4 Norte 8 Norte 0 -- -- 40
2019-03-27 00:00:00 8.3 9 Este 24 Este 0 -- -- 30